Time;durP1;ratioP1;P1;durP2;ratioP2;P2;SDS_P1;SDS_P2;PMS_P1;PMS_P2;Temp;Humidity;BMP_temperature;BMP_pressure;BME280_temperature;BME280_humidity;BME280_pressure;Samples;Min_cycle;Max_cycle;Signal;HPM_P1;HPM_P2
2021/07/18 00:00:26;;;;;;;5.19;4.31;;;;;;;21.40;73.19;100884.09;;;;-58
2021/07/18 00:03:26;;;;;;;4.99;4.51;;;;;;;21.40;73.26;100881.98;;;;-65
2021/07/18 00:06:26;;;;;;;4.49;4.09;;;;;;;21.39;73.22;100875.62;;;;-65
2021/07/18 00:09:26;;;;;;;4.77;4.25;;;;;;;21.40;73.21;100879.12;;;;-66
2021/07/18 00:12:26;;;;;;;4.59;4.19;;;;;;;21.39;73.20;100876.16;;;;-63
2021/07/18 00:15:26;;;;;;;4.75;4.35;;;;;;;21.38;73.19;100874.30;;;;-66
2021/07/18 00:18:26;;;;;;;4.78;4.38;;;;;;;21.39;73.25;100877.48;;;;-65
2021/07/18 00:21:26;;;;;;;4.50;4.10;;;;;;;21.38;73.23;100877.98;;;;-66
2021/07/18 00:24:26;;;;;;;4.65;4.25;;;;;;;21.38;73.23;100880.26;;;;-52
2021/07/18 00:27:26;;;;;;;4.49;4.09;;;;;;;21.37;73.22;100877.73;;;;-51
2021/07/18 00:30:26;;;;;;;4.77;4.37;;;;;;;21.37;73.17;100875.59;;;;-51
2021/07/18 00:33:26;;;;;;;4.67;4.27;;;;;;;21.36;73.23;100876.49;;;;-52
2021/07/18 00:36:26;;;;;;;4.64;4.24;;;;;;;21.37;73.14;100876.32;;;;-68
2021/07/18 00:39:26;;;;;;;4.92;4.19;;;;;;;21.37;73.21;100873.23;;;;-65
2021/07/18 00:42:26;;;;;;;4.31;3.93;;;;;;;21.36;73.22;100872.74;;;;-65
2021/07/18 00:45:26;;;;;;;4.81;4.35;;;;;;;21.36;73.15;100877.80;;;;-67
2021/07/18 00:48:26;;;;;;;4.59;4.19;;;;;;;21.35;73.23;100879.67;;;;-66
2021/07/18 00:51:26;;;;;;;4.49;4.09;;;;;;;21.35;73.16;100879.67;;;;-65
2021/07/18 00:54:26;;;;;;;4.13;3.83;;;;;;;21.35;73.17;100880.63;;;;-65
2021/07/18 00:57:26;;;;;;;4.57;4.17;;;;;;;21.35;73.22;100883.66;;;;-65
2021/07/18 01:00:26;;;;;;;4.49;4.09;;;;;;;21.35;73.24;100886.09;;;;-65
2021/07/18 01:03:26;;;;;;;4.40;4.01;;;;;;;21.34;73.22;100883.16;;;;-63
2021/07/18 01:06:26;;;;;;;4.49;4.09;;;;;;;21.34;73.20;100884.55;;;;-66
2021/07/18 01:09:26;;;;;;;4.54;4.14;;;;;;;21.33;73.17;100880.64;;;;-67
2021/07/18 01:12:26;;;;;;;3.98;3.68;;;;;;;21.33;73.18;100877.38;;;;-67
2021/07/18 01:15:26;;;;;;;4.36;3.96;;;;;;;21.33;73.17;100875.32;;;;-66
2021/07/18 01:18:26;;;;;;;4.25;3.91;;;;;;;21.32;73.14;100877.03;;;;-54
2021/07/18 01:21:26;;;;;;;4.22;3.82;;;;;;;21.33;73.17;100867.66;;;;-54
2021/07/18 01:24:26;;;;;;;4.43;3.98;;;;;;;21.32;73.11;100866.77;;;;-53
2021/07/18 01:27:26;;;;;;;4.32;3.92;;;;;;;21.31;73.14;100869.55;;;;-54
2021/07/18 01:30:26;;;;;;;4.05;3.73;;;;;;;21.31;73.09;100869.77;;;;-54
2021/07/18 01:33:26;;;;;;;4.03;3.63;;;;;;;21.32;73.10;100867.02;;;;-53
2021/07/18 01:36:26;;;;;;;4.11;3.81;;;;;;;21.31;73.19;100866.66;;;;-54
2021/07/18 01:39:26;;;;;;;4.03;3.73;;;;;;;21.30;73.04;100869.11;;;;-58
2021/07/18 01:42:26;;;;;;;4.06;3.76;;;;;;;21.30;73.05;100871.23;;;;-66
2021/07/18 01:45:26;;;;;;;4.61;4.18;;;;;;;21.30;73.09;100874.01;;;;-65
2021/07/18 01:48:26;;;;;;;4.16;3.82;;;;;;;21.30;73.09;100873.03;;;;-65
2021/07/18 01:51:26;;;;;;;4.27;3.91;;;;;;;21.30;73.06;100872.55;;;;-67
2021/07/18 01:54:26;;;;;;;3.89;3.59;;;;;;;21.30;73.09;100875.56;;;;-65
2021/07/18 01:57:26;;;;;;;4.11;3.81;;;;;;;21.29;73.10;100872.22;;;;-65
2021/07/18 02:00:26;;;;;;;3.95;3.65;;;;;;;21.29;73.06;100862.77;;;;-65
2021/07/18 02:03:26;;;;;;;3.99;3.61;;;;;;;21.29;73.09;100866.81;;;;-65
2021/07/18 02:06:26;;;;;;;4.15;3.79;;;;;;;21.28;73.09;100863.23;;;;-67
2021/07/18 02:09:26;;;;;;;4.10;3.79;;;;;;;21.29;73.02;100867.72;;;;-65
2021/07/18 02:12:26;;;;;;;3.83;3.53;;;;;;;21.28;73.02;100866.98;;;;-65
2021/07/18 02:15:26;;;;;;;4.17;3.79;;;;;;;21.28;73.01;100868.70;;;;-66
2021/07/18 02:18:26;;;;;;;4.81;3.97;;;;;;;21.27;72.99;100868.14;;;;-65
2021/07/18 02:21:26;;;;;;;4.14;3.80;;;;;;;21.27;73.00;100865.02;;;;-65
2021/07/18 02:24:26;;;;;;;4.09;3.60;;;;;;;21.26;73.01;100866.16;;;;-67
2021/07/18 02:27:26;;;;;;;4.06;3.73;;;;;;;21.27;72.99;100864.13;;;;-65
2021/07/18 02:30:26;;;;;;;3.71;3.41;;;;;;;21.26;72.99;100863.31;;;;-65
2021/07/18 02:33:26;;;;;;;4.11;3.70;;;;;;;21.26;73.03;100867.14;;;;-67
2021/07/18 02:36:26;;;;;;;3.86;3.56;;;;;;;21.25;73.03;100866.33;;;;-58
2021/07/18 02:39:26;;;;;;;4.44;3.71;;;;;;;21.25;73.05;100871.20;;;;-57
2021/07/18 02:42:26;;;;;;;4.05;3.75;;;;;;;21.25;73.06;100872.45;;;;-59
2021/07/18 02:45:26;;;;;;;4.01;3.71;;;;;;;21.25;73.09;100866.06;;;;-59
2021/07/18 02:48:26;;;;;;;3.74;3.44;;;;;;;21.24;73.06;100864.28;;;;-58
2021/07/18 02:51:26;;;;;;;3.88;3.58;;;;;;;21.24;73.00;100863.22;;;;-57
2021/07/18 02:54:26;;;;;;;4.01;3.65;;;;;;;21.24;73.03;100867.29;;;;-58
2021/07/18 02:57:26;;;;;;;3.87;3.57;;;;;;;21.24;73.05;100869.58;;;;-57
2021/07/18 03:00:26;;;;;;;3.71;3.41;;;;;;;21.24;73.06;100876.83;;;;-58
2021/07/18 03:03:26;;;;;;;3.83;3.45;;;;;;;21.23;73.02;100873.91;;;;-58
2021/07/18 03:06:26;;;;;;;3.79;3.49;;;;;;;21.22;73.01;100877.87;;;;-58
2021/07/18 03:09:27;;;;;;;3.72;3.42;;;;;;;21.23;73.06;100884.64;;;;-57
2021/07/18 03:12:28;;;;;;;3.72;3.42;;;;;;;21.23;73.03;100890.02;;;;-58
2021/07/18 03:15:26;;;;;;;3.85;3.55;;;;;;;21.22;73.01;100890.02;;;;-57
2021/07/18 03:18:26;;;;;;;3.80;3.37;;;;;;;21.23;73.03;100891.81;;;;-58
2021/07/18 03:21:26;;;;;;;3.86;3.51;;;;;;;21.22;73.00;100891.08;;;;-58
2021/07/18 03:24:26;;;;;;;4.06;3.45;;;;;;;21.22;73.02;100887.58;;;;-57
2021/07/18 03:27:26;;;;;;;3.80;3.50;;;;;;;21.22;72.98;100883.02;;;;-58
2021/07/18 03:30:26;;;;;;;3.78;3.48;;;;;;;21.22;73.04;100882.61;;;;-57
2021/07/18 03:33:26;;;;;;;3.59;3.29;;;;;;;21.21;73.01;100879.59;;;;-58
2021/07/18 03:36:26;;;;;;;3.57;3.27;;;;;;;21.20;73.03;100883.97;;;;-58
2021/07/18 03:39:26;;;;;;;3.45;3.17;;;;;;;21.21;72.99;100885.55;;;;-58
2021/07/18 03:42:26;;;;;;;3.37;3.17;;;;;;;21.21;73.01;100882.78;;;;-58
2021/07/18 03:45:26;;;;;;;3.78;3.48;;;;;;;21.21;73.00;100886.03;;;;-57
2021/07/18 03:48:26;;;;;;;3.63;3.33;;;;;;;21.20;73.03;100885.77;;;;-58
2021/07/18 03:51:26;;;;;;;3.67;3.37;;;;;;;21.21;72.95;100888.48;;;;-57
2021/07/18 03:54:26;;;;;;;3.73;3.41;;;;;;;21.20;73.03;100888.37;;;;-58
2021/07/18 03:57:26;;;;;;;3.56;3.26;;;;;;;21.20;72.94;100890.91;;;;-57
2021/07/18 04:00:26;;;;;;;3.48;3.18;;;;;;;21.20;72.94;100889.36;;;;-58
2021/07/18 04:03:26;;;;;;;3.59;3.29;;;;;;;21.19;72.98;100889.20;;;;-58
2021/07/18 04:06:26;;;;;;;3.34;3.01;;;;;;;21.19;72.99;100891.73;;;;-58
2021/07/18 04:09:26;;;;;;;3.40;3.15;;;;;;;21.19;72.96;100896.12;;;;-58
2021/07/18 04:12:26;;;;;;;3.40;3.10;;;;;;;21.18;72.97;100896.67;;;;-57
2021/07/18 04:15:26;;;;;;;3.33;3.03;;;;;;;21.18;72.95;100891.30;;;;-58
2021/07/18 04:18:26;;;;;;;3.47;3.17;;;;;;;21.18;72.91;100889.83;;;;-58
2021/07/18 04:21:26;;;;;;;3.37;3.11;;;;;;;21.18;72.97;100896.19;;;;-58
2021/07/18 04:24:26;;;;;;;3.43;3.13;;;;;;;21.19;72.90;100899.47;;;;-58
2021/07/18 04:27:26;;;;;;;3.21;2.95;;;;;;;21.18;72.90;100902.30;;;;-57
2021/07/18 04:30:26;;;;;;;3.59;3.29;;;;;;;21.18;72.88;100904.51;;;;-57
2021/07/18 04:33:26;;;;;;;3.52;3.22;;;;;;;21.17;72.98;100901.58;;;;-58
2021/07/18 04:36:26;;;;;;;3.17;2.97;;;;;;;21.18;72.97;100904.59;;;;-59
2021/07/18 04:39:26;;;;;;;3.19;2.99;;;;;;;21.17;72.95;100906.06;;;;-57
2021/07/18 04:42:26;;;;;;;3.17;2.87;;;;;;;21.17;72.89;100910.38;;;;-57
2021/07/18 04:45:26;;;;;;;3.37;3.07;;;;;;;21.16;72.86;100917.12;;;;-58
2021/07/18 04:48:26;;;;;;;3.55;3.25;;;;;;;21.17;72.92;100921.71;;;;-58
2021/07/18 04:51:26;;;;;;;3.61;3.31;;;;;;;21.16;72.90;100924.21;;;;-58
2021/07/18 04:54:26;;;;;;;3.03;2.83;;;;;;;21.16;72.87;100922.99;;;;-57
2021/07/18 04:57:26;;;;;;;3.19;2.96;;;;;;;21.16;72.91;100926.83;;;;-57
2021/07/18 05:00:26;;;;;;;3.37;3.07;;;;;;;21.16;72.88;100930.09;;;;-58
2021/07/18 05:03:26;;;;;;;3.46;3.16;;;;;;;21.15;72.90;100932.45;;;;-57
2021/07/18 05:06:26;;;;;;;3.22;2.92;;;;;;;21.15;72.92;100934.41;;;;-57
2021/07/18 05:09:27;;;;;;;3.35;3.06;;;;;;;21.15;72.90;100932.20;;;;-58
2021/07/18 05:12:26;;;;;;;3.21;2.98;;;;;;;21.15;72.88;100925.69;;;;-58
2021/07/18 05:15:26;;;;;;;3.07;2.87;;;;;;;21.15;72.90;100930.50;;;;-57
2021/07/18 05:18:26;;;;;;;2.93;2.73;;;;;;;21.15;72.93;100930.91;;;;-58
2021/07/18 05:21:26;;;;;;;4.52;2.74;;;;;;;21.14;70.22;100934.63;;;;-57
2021/07/18 05:24:26;;;;;;;5.46;2.70;;;;;;;21.01;69.17;100933.25;;;;-58
2021/07/18 05:27:26;;;;;;;4.08;2.77;;;;;;;20.92;69.62;100932.28;;;;-57
2021/07/18 05:30:26;;;;;;;3.88;2.74;;;;;;;20.84;69.84;100930.34;;;;-57
2021/07/18 05:33:26;;;;;;;3.74;2.37;;;;;;;20.86;70.06;100940.22;;;;-57
2021/07/18 05:36:26;;;;;;;5.30;2.42;;;;;;;20.82;69.32;100942.22;;;;-57
2021/07/18 05:39:26;;;;;;;5.47;2.58;;;;;;;20.76;69.61;100941.59;;;;-57
2021/07/18 05:42:26;;;;;;;3.79;2.44;;;;;;;20.75;70.08;100944.42;;;;-58
2021/07/18 05:45:26;;;;;;;4.59;2.43;;;;;;;20.72;69.53;100947.09;;;;-56
2021/07/18 05:48:26;;;;;;;4.01;2.61;;;;;;;20.69;69.37;100946.84;;;;-58
2021/07/18 05:51:26;;;;;;;3.44;2.30;;;;;;;20.70;69.20;100942.60;;;;-57
2021/07/18 05:54:26;;;;;;;3.49;2.43;;;;;;;20.62;69.46;100937.88;;;;-57
2021/07/18 05:57:26;;;;;;;3.84;2.65;;;;;;;20.58;70.08;100937.00;;;;-58
2021/07/18 06:00:26;;;;;;;7.69;2.44;;;;;;;20.61;70.21;100938.11;;;;-52
2021/07/18 06:03:26;;;;;;;3.80;2.33;;;;;;;20.64;70.30;100947.92;;;;-51
2021/07/18 06:06:26;;;;;;;4.99;2.48;;;;;;;20.67;70.14;100947.39;;;;-52
2021/07/18 06:09:26;;;;;;;3.81;2.35;;;;;;;20.69;70.18;100944.56;;;;-51
2021/07/18 06:12:26;;;;;;;7.09;2.28;;;;;;;20.72;70.42;100948.56;;;;-52
2021/07/18 06:15:26;;;;;;;2.67;2.09;;;;;;;20.74;70.50;100949.16;;;;-51
2021/07/18 06:18:26;;;;;;;3.26;2.45;;;;;;;20.75;70.61;100949.97;;;;-51
2021/07/18 06:21:26;;;;;;;3.04;2.13;;;;;;;20.77;70.65;100949.93;;;;-51
2021/07/18 06:24:26;;;;;;;3.57;2.28;;;;;;;20.78;70.76;100951.47;;;;-51
2021/07/18 06:27:26;;;;;;;5.05;2.29;;;;;;;20.79;70.74;100947.80;;;;-51
2021/07/18 06:30:26;;;;;;;2.91;2.32;;;;;;;20.80;70.81;100947.34;;;;-51
2021/07/18 06:33:26;;;;;;;3.08;2.25;;;;;;;20.81;70.87;100946.84;;;;-52
2021/07/18 06:36:26;;;;;;;3.35;2.33;;;;;;;20.81;70.92;100946.67;;;;-53
2021/07/18 06:39:26;;;;;;;4.14;2.16;;;;;;;20.82;71.00;100949.80;;;;-68
2021/07/18 06:42:26;;;;;;;3.30;2.07;;;;;;;20.83;71.00;100951.59;;;;-69
2021/07/18 06:45:26;;;;;;;2.41;2.07;;;;;;;20.83;71.08;100952.23;;;;-69
2021/07/18 06:48:26;;;;;;;3.27;2.24;;;;;;;20.83;71.11;100957.12;;;;-65
2021/07/18 06:51:26;;;;;;;2.97;2.17;;;;;;;20.85;71.18;100956.81;;;;-64
2021/07/18 06:54:26;;;;;;;2.43;2.08;;;;;;;20.84;71.18;100951.77;;;;-64
2021/07/18 06:57:26;;;;;;;2.68;2.13;;;;;;;20.85;71.23;100954.95;;;;-64
2021/07/18 07:00:26;;;;;;;3.03;2.23;;;;;;;20.86;71.25;100957.91;;;;-66
2021/07/18 07:03:26;;;;;;;3.33;2.19;;;;;;;20.86;71.29;100962.63;;;;-51
2021/07/18 07:06:26;;;;;;;3.91;2.16;;;;;;;20.86;71.34;100961.97;;;;-52
2021/07/18 07:09:26;;;;;;;2.72;2.19;;;;;;;20.86;71.35;100964.42;;;;-51
2021/07/18 07:12:26;;;;;;;2.79;2.14;;;;;;;20.86;71.37;100968.08;;;;-51
2021/07/18 07:15:26;;;;;;;2.59;2.03;;;;;;;20.87;71.38;100970.36;;;;-51
2021/07/18 07:18:26;;;;;;;2.21;1.99;;;;;;;20.87;71.40;100964.73;;;;-51
2021/07/18 07:21:26;;;;;;;2.33;1.97;;;;;;;20.88;71.41;100962.48;;;;-52
2021/07/18 07:24:26;;;;;;;2.27;2.05;;;;;;;20.88;71.42;100967.61;;;;-51
2021/07/18 07:27:26;;;;;;;2.79;2.13;;;;;;;20.88;71.43;100965.41;;;;-54
2021/07/18 07:30:26;;;;;;;2.57;2.10;;;;;;;20.88;71.45;100968.43;;;;-54
2021/07/18 07:33:26;;;;;;;3.09;2.07;;;;;;;20.89;71.44;100966.47;;;;-54
2021/07/18 07:36:26;;;;;;;2.10;1.90;;;;;;;20.89;71.49;100963.70;;;;-54
2021/07/18 07:39:26;;;;;;;2.59;2.08;;;;;;;20.89;71.47;100962.96;;;;-53
2021/07/18 07:42:26;;;;;;;2.15;1.98;;;;;;;20.89;71.50;100961.98;;;;-54
2021/07/18 07:45:26;;;;;;;2.13;1.93;;;;;;;20.90;71.47;100964.30;;;;-54
2021/07/18 07:48:26;;;;;;;2.21;1.99;;;;;;;20.89;71.46;100962.87;;;;-51
2021/07/18 07:51:26;;;;;;;2.20;2.00;;;;;;;20.89;71.53;100958.80;;;;-51
2021/07/18 07:54:26;;;;;;;2.18;1.87;;;;;;;20.90;71.54;100960.14;;;;-57
2021/07/18 07:57:26;;;;;;;2.05;1.85;;;;;;;20.91;71.56;100960.13;;;;-58
2021/07/18 08:00:26;;;;;;;2.34;2.08;;;;;;;20.91;71.54;100956.88;;;;-58
2021/07/18 08:03:26;;;;;;;2.13;1.93;;;;;;;20.90;71.59;100955.48;;;;-65
2021/07/18 08:06:26;;;;;;;2.36;2.00;;;;;;;20.90;71.53;100952.72;;;;-65
2021/07/18 08:09:26;;;;;;;1.99;1.89;;;;;;;20.90;71.57;100948.16;;;;-66
2021/07/18 08:12:26;;;;;;;2.05;1.85;;;;;;;20.91;71.56;100948.40;;;;-65
2021/07/18 08:15:26;;;;;;;2.49;1.97;;;;;;;20.91;71.57;100943.52;;;;-51
2021/07/18 08:18:26;;;;;;;14.45;2.93;;;;;;;20.92;71.83;100940.08;;;;-47
2021/07/18 08:21:26;;;;;;;3.73;2.00;;;;;;;20.92;71.89;100940.59;;;;-50
2021/07/18 08:24:26;;;;;;;3.52;2.09;;;;;;;20.95;71.90;100940.86;;;;-53
2021/07/18 08:27:26;;;;;;;3.26;1.90;;;;;;;20.98;72.02;100946.92;;;;-58
2021/07/18 08:30:26;;;;;;;4.28;2.00;;;;;;;21.00;72.17;100952.37;;;;-51
2021/07/18 08:33:26;;;;;;;2.17;1.97;;;;;;;21.02;72.28;100945.55;;;;-55
2021/07/18 08:36:26;;;;;;;4.53;1.83;;;;;;;21.04;72.34;100945.64;;;;-52
2021/07/18 08:39:26;;;;;;;2.49;1.87;;;;;;;21.06;72.34;100949.16;;;;-49
2021/07/18 08:42:26;;;;;;;3.49;1.95;;;;;;;21.07;72.42;100943.48;;;;-51
2021/07/18 08:45:26;;;;;;;4.77;1.92;;;;;;;21.08;72.40;100943.63;;;;-48
2021/07/18 08:48:26;;;;;;;3.87;2.05;;;;;;;21.10;72.44;100944.79;;;;-52
2021/07/18 08:51:26;;;;;;;5.31;2.15;;;;;;;21.12;72.44;100945.86;;;;-47
2021/07/18 08:54:26;;;;;;;2.99;2.11;;;;;;;21.14;72.53;100946.05;;;;-67
2021/07/18 08:57:26;;;;;;;4.63;2.24;;;;;;;21.15;72.46;100941.34;;;;-58
2021/07/18 09:00:26;;;;;;;3.97;1.94;;;;;;;21.17;72.26;100939.23;;;;-60
2021/07/18 09:03:26;;;;;;;3.36;1.90;;;;;;;21.17;72.39;100939.39;;;;-60
2021/07/18 09:06:26;;;;;;;12.17;2.35;;;;;;;21.18;72.32;100938.82;;;;-60
2021/07/18 09:09:26;;;;;;;4.79;2.05;;;;;;;21.18;72.38;100930.18;;;;-60
2021/07/18 09:12:26;;;;;;;3.85;2.19;;;;;;;21.18;72.32;100929.85;;;;-60
2021/07/18 09:15:26;;;;;;;4.77;2.05;;;;;;;21.18;72.24;100931.33;;;;-61
2021/07/18 09:18:26;;;;;;;4.43;2.00;;;;;;;21.18;72.23;100933.52;;;;-52
2021/07/18 09:21:26;;;;;;;4.48;2.07;;;;;;;21.17;72.21;100927.66;;;;-52
2021/07/18 09:24:26;;;;;;;4.90;2.34;;;;;;;21.19;72.21;100924.17;;;;-50
2021/07/18 09:27:26;;;;;;;2.91;1.89;;;;;;;21.20;72.18;100921.39;;;;-49
2021/07/18 09:30:26;;;;;;;3.19;2.00;;;;;;;21.21;72.17;100917.02;;;;-60
2021/07/18 09:33:26;;;;;;;2.57;1.92;;;;;;;21.22;72.32;100916.43;;;;-58
2021/07/18 09:36:26;;;;;;;4.06;1.99;;;;;;;21.23;72.24;100912.05;;;;-58
2021/07/18 09:39:26;;;;;;;3.15;2.03;;;;;;;21.25;72.24;100910.68;;;;-53
2021/07/18 09:42:26;;;;;;;2.40;2.00;;;;;;;21.26;72.30;100903.33;;;;-50
2021/07/18 09:45:26;;;;;;;3.46;1.79;;;;;;;21.27;72.30;100897.13;;;;-59
2021/07/18 09:48:26;;;;;;;2.98;1.97;;;;;;;21.28;72.36;100893.08;;;;-59
2021/07/18 09:51:26;;;;;;;2.52;2.01;;;;;;;21.29;72.34;100893.83;;;;-65
2021/07/18 09:54:26;;;;;;;2.58;1.95;;;;;;;21.29;72.40;100892.11;;;;-61
2021/07/18 09:57:26;;;;;;;2.89;2.07;;;;;;;21.32;72.31;100893.19;;;;-61
2021/07/18 10:00:26;;;;;;;2.73;1.87;;;;;;;21.32;72.42;100887.23;;;;-61
2021/07/18 10:03:27;;;;;;;4.07;2.18;;;;;;;21.34;72.43;100887.73;;;;-64
2021/07/18 10:06:26;;;;;;;3.93;2.03;;;;;;;21.36;72.41;100887.74;;;;-51
2021/07/18 10:09:26;;;;;;;7.66;2.40;;;;;;;21.37;72.29;100879.53;;;;-51
2021/07/18 10:12:27;;;;;;;6.09;2.16;;;;;;;21.38;72.34;100877.56;;;;-56
2021/07/18 10:15:26;;;;;;;2.91;1.98;;;;;;;21.39;72.36;100875.92;;;;-50
2021/07/18 10:18:26;;;;;;;3.55;2.00;;;;;;;21.40;72.38;100875.45;;;;-58
2021/07/18 10:21:26;;;;;;;3.37;2.18;;;;;;;21.40;72.38;100869.42;;;;-50
2021/07/18 10:24:26;;;;;;;2.85;2.17;;;;;;;21.43;72.35;100869.30;;;;-50
2021/07/18 10:27:26;;;;;;;3.53;2.25;;;;;;;21.44;72.33;100865.89;;;;-52
2021/07/18 10:30:26;;;;;;;6.41;2.23;;;;;;;21.43;72.03;100860.08;;;;-51
2021/07/18 10:33:26;;;;;;;3.66;2.30;;;;;;;21.43;72.29;100862.77;;;;-51
2021/07/18 10:36:26;;;;;;;3.03;2.09;;;;;;;21.43;72.21;100867.58;;;;-51
2021/07/18 10:39:26;;;;;;;3.41;2.01;;;;;;;21.42;72.26;100862.78;;;;-51
2021/07/18 10:42:26;;;;;;;4.62;2.05;;;;;;;21.42;72.20;100859.03;;;;-52
2021/07/18 10:45:26;;;;;;;5.63;2.20;;;;;;;21.42;72.11;100855.77;;;;-51
2021/07/18 10:48:26;;;;;;;3.61;1.81;;;;;;;21.41;72.05;100856.86;;;;-51
2021/07/18 10:51:26;;;;;;;3.13;2.09;;;;;;;21.41;72.03;100855.96;;;;-51
2021/07/18 10:54:26;;;;;;;4.70;2.17;;;;;;;21.40;72.04;100854.09;;;;-51
2021/07/18 10:57:26;;;;;;;6.21;2.19;;;;;;;21.40;72.02;100856.95;;;;-58
2021/07/18 11:00:26;;;;;;;3.93;2.17;;;;;;;21.40;71.99;100857.19;;;;-57
2021/07/18 11:03:26;;;;;;;3.24;2.07;;;;;;;21.40;71.95;100860.69;;;;-57
2021/07/18 11:06:27;;;;;;;4.33;2.13;;;;;;;21.40;71.95;100857.11;;;;-57
2021/07/18 11:09:27;;;;;;;2.76;1.97;;;;;;;21.40;71.92;100857.92;;;;-58
2021/07/18 11:12:26;;;;;;;4.21;1.89;;;;;;;21.40;71.87;100850.91;;;;-51
2021/07/18 11:15:26;;;;;;;3.93;1.95;;;;;;;21.40;71.87;100851.57;;;;-53
2021/07/18 11:18:26;;;;;;;4.62;1.91;;;;;;;21.40;71.91;100850.18;;;;-53
2021/07/18 11:21:26;;;;;;;3.40;2.05;;;;;;;21.40;71.85;100842.43;;;;-53
2021/07/18 11:24:26;;;;;;;2.95;1.87;;;;;;;21.40;71.83;100838.68;;;;-53
2021/07/18 11:27:26;;;;;;;2.45;1.91;;;;;;;21.40;71.79;100832.16;;;;-53
2021/07/18 11:30:26;;;;;;;4.16;2.00;;;;;;;21.40;71.82;100839.41;;;;-54
2021/07/18 11:33:26;;;;;;;2.77;1.80;;;;;;;21.40;71.79;100834.03;;;;-53
2021/07/18 11:36:26;;;;;;;2.81;1.84;;;;;;;21.39;71.79;100822.79;;;;-56
2021/07/18 11:39:26;;;;;;;4.60;2.05;;;;;;;21.40;71.78;100823.69;;;;-56
2021/07/18 11:42:26;;;;;;;2.82;1.97;;;;;;;21.39;71.79;100822.44;;;;-56
2021/07/18 11:45:26;;;;;;;5.07;1.93;;;;;;;21.40;71.79;100820.34;;;;-55
2021/07/18 11:48:26;;;;;;;2.75;1.91;;;;;;;21.39;71.77;100824.31;;;;-61
2021/07/18 11:51:26;;;;;;;3.94;2.10;;;;;;;21.39;71.70;100818.20;;;;-61
2021/07/18 11:54:26;;;;;;;3.10;1.97;;;;;;;21.39;71.72;100820.31;;;;-62
2021/07/18 11:57:26;;;;;;;2.59;1.91;;;;;;;21.39;71.77;100820.48;;;;-61
2021/07/18 12:00:26;;;;;;;3.56;1.98;;;;;;;21.39;71.78;100819.58;;;;-54
2021/07/18 12:03:26;;;;;;;3.22;1.83;;;;;;;21.39;71.73;100810.88;;;;-54
2021/07/18 12:06:27;;;;;;;2.81;1.94;;;;;;;21.39;71.72;100808.34;;;;-54
2021/07/18 12:09:26;;;;;;;1.89;1.70;;;;;;;21.38;71.73;100800.92;;;;-55
2021/07/18 12:12:26;;;;;;;4.68;2.03;;;;;;;21.38;71.70;100800.02;;;;-54
2021/07/18 12:15:26;;;;;;;3.07;1.96;;;;;;;21.38;71.66;100798.55;;;;-54
2021/07/18 12:18:26;;;;;;;2.17;1.87;;;;;;;21.38;71.70;100800.52;;;;-54
2021/07/18 12:21:26;;;;;;;2.82;1.87;;;;;;;21.38;71.72;100791.13;;;;-63
2021/07/18 12:24:26;;;;;;;3.13;1.94;;;;;;;21.38;71.71;100787.71;;;;-63
2021/07/18 12:27:27;;;;;;;2.19;1.79;;;;;;;21.38;71.70;100790.33;;;;-63
2021/07/18 12:30:26;;;;;;;1.86;1.76;;;;;;;21.38;71.71;100790.65;;;;-63
2021/07/18 12:33:28;;;;;;;2.39;1.93;;;;;;;21.38;71.65;100785.27;;;;-63
2021/07/18 12:36:26;;;;;;;2.89;1.83;;;;;;;21.38;71.65;100786.73;;;;-62
2021/07/18 12:39:27;;;;;;;3.14;1.83;;;;;;;21.38;71.65;100779.73;;;;-63
2021/07/18 12:42:26;;;;;;;4.41;1.87;;;;;;;21.37;71.67;100777.45;;;;-62
2021/07/18 12:45:26;;;;;;;7.82;2.00;;;;;;;21.37;71.81;100772.07;;;;-57
2021/07/18 12:48:26;;;;;;;2.17;1.84;;;;;;;21.40;71.82;100767.09;;;;-59
2021/07/18 12:51:26;;;;;;;8.89;2.12;;;;;;;21.40;71.97;100767.17;;;;-52
2021/07/18 12:54:26;;;;;;;3.39;1.95;;;;;;;21.41;71.96;100761.63;;;;-52
2021/07/18 12:57:26;;;;;;;6.75;1.93;;;;;;;21.42;72.00;100762.46;;;;-51
2021/07/18 13:00:26;;;;;;;6.91;2.11;;;;;;;21.43;71.97;100759.54;;;;-52
2021/07/18 13:03:26;;;;;;;4.09;2.13;;;;;;;21.45;71.93;100754.90;;;;-54
2021/07/18 13:06:26;;;;;;;3.60;2.03;;;;;;;21.46;72.01;100753.77;;;;-60
2021/07/18 13:09:26;;;;;;;6.81;2.00;;;;;;;21.48;71.91;100747.34;;;;-49
2021/07/18 13:12:26;;;;;;;4.46;1.99;;;;;;;21.47;72.00;100754.00;;;;-49
2021/07/18 13:15:26;;;;;;;3.67;1.91;;;;;;;21.49;72.20;100751.41;;;;-52
2021/07/18 13:18:26;;;;;;;6.79;2.12;;;;;;;21.52;72.18;100749.45;;;;-58
2021/07/18 13:21:26;;;;;;;6.39;2.04;;;;;;;21.56;72.20;100744.32;;;;-52
2021/07/18 13:24:26;;;;;;;6.74;2.28;;;;;;;21.56;71.78;100737.55;;;;-55
2021/07/18 13:27:26;;;;;;;4.61;2.05;;;;;;;21.56;71.90;100744.42;;;;-54
2021/07/18 13:30:26;;;;;;;4.49;2.25;;;;;;;21.56;71.95;100739.86;;;;-59
2021/07/18 13:33:26;;;;;;;3.45;2.15;;;;;;;21.56;71.83;100741.09;;;;-59
2021/07/18 13:36:26;;;;;;;2.95;1.95;;;;;;;21.56;71.81;100737.71;;;;-52
2021/07/18 13:39:26;;;;;;;4.86;2.00;;;;;;;21.55;71.85;100737.73;;;;-52
2021/07/18 13:42:26;;;;;;;2.92;2.00;;;;;;;21.55;71.75;100734.06;;;;-54
2021/07/18 13:45:26;;;;;;;3.67;2.07;;;;;;;21.54;71.74;100736.19;;;;-52
2021/07/18 13:48:26;;;;;;;2.93;1.92;;;;;;;21.53;71.76;100730.87;;;;-52
2021/07/18 13:51:26;;;;;;;3.08;2.05;;;;;;;21.52;71.79;100725.63;;;;-59
2021/07/18 13:54:26;;;;;;;2.95;2.00;;;;;;;21.52;71.72;100725.50;;;;-59
2021/07/18 13:57:26;;;;;;;4.26;2.11;;;;;;;21.52;71.75;100719.59;;;;-60
2021/07/18 14:00:26;;;;;;;4.57;2.02;;;;;;;21.52;71.71;100718.05;;;;-59
2021/07/18 14:03:26;;;;;;;4.15;1.95;;;;;;;21.51;71.73;100714.55;;;;-59
2021/07/18 14:06:26;;;;;;;3.31;2.01;;;;;;;21.51;71.61;100715.86;;;;-60
2021/07/18 14:09:26;;;;;;;3.19;1.80;;;;;;;21.51;71.74;100715.05;;;;-59
2021/07/18 14:12:26;;;;;;;4.58;1.80;;;;;;;21.50;71.66;100712.04;;;;-52
2021/07/18 14:15:26;;;;;;;3.18;1.86;;;;;;;21.50;71.66;100705.56;;;;-52
2021/07/18 14:18:26;;;;;;;3.11;1.96;;;;;;;21.50;71.64;100708.17;;;;-52
2021/07/18 14:21:26;;;;;;;2.61;1.91;;;;;;;21.49;71.65;100708.34;;;;-52
2021/07/18 14:24:26;;;;;;;3.50;1.98;;;;;;;21.50;71.66;100706.70;;;;-53
2021/07/18 14:27:26;;;;;;;3.57;1.89;;;;;;;21.49;71.65;100702.48;;;;-51
2021/07/18 14:30:27;;;;;;;3.40;1.90;;;;;;;21.51;71.65;100707.47;;;;-49
2021/07/18 14:33:26;;;;;;;5.41;1.91;;;;;;;21.52;71.94;100701.61;;;;-52
2021/07/18 14:36:29;;;;;;;2.67;1.97;;;;;;;21.54;72.01;100706.64;;;;-52
2021/07/18 14:39:26;;;;;;;4.58;2.23;;;;;;;21.55;72.04;100705.42;;;;-63
2021/07/18 14:42:26;;;;;;;3.28;1.91;;;;;;;21.56;72.19;100696.86;;;;-59
2021/07/18 14:45:26;;;;;;;5.25;2.01;;;;;;;21.57;72.14;100696.70;;;;-56
2021/07/18 14:48:26;;;;;;;3.91;1.93;;;;;;;21.59;72.12;100686.84;;;;-54
2021/07/18 14:51:26;;;;;;;3.24;1.90;;;;;;;21.61;72.17;100692.07;;;;-63
2021/07/18 14:54:26;;;;;;;3.15;1.97;;;;;;;21.60;72.22;100683.67;;;;-60
2021/07/18 14:57:26;;;;;;;3.07;1.90;;;;;;;21.62;72.16;100679.81;;;;-58
2021/07/18 15:00:26;;;;;;;4.61;1.94;;;;;;;21.63;72.25;100677.71;;;;-61
2021/07/18 15:03:26;;;;;;;4.71;2.19;;;;;;;21.64;72.33;100676.02;;;;-61
2021/07/18 15:06:26;;;;;;;4.26;1.87;;;;;;;21.64;72.34;100678.78;;;;-54
2021/07/18 15:09:27;;;;;;;2.57;1.78;;;;;;;21.66;72.18;100675.66;;;;-53
2021/07/18 15:12:26;;;;;;;2.58;2.01;;;;;;;21.67;72.32;100676.91;;;;-59
2021/07/18 15:15:26;;;;;;;10.47;2.18;;;;;;;21.67;72.30;100675.03;;;;-56
2021/07/18 15:18:26;;;;;;;3.91;2.10;;;;;;;21.66;72.26;100673.13;;;;-55
2021/07/18 15:21:26;;;;;;;4.90;2.05;;;;;;;21.65;72.36;100674.13;;;;-56
2021/07/18 15:24:26;;;;;;;6.23;2.00;;;;;;;21.65;72.18;100670.63;;;;-49
2021/07/18 15:27:26;;;;;;;4.57;1.79;;;;;;;21.65;72.13;100664.91;;;;-54
2021/07/18 15:30:26;;;;;;;4.86;2.03;;;;;;;21.66;72.15;100663.18;;;;-49
2021/07/18 15:33:26;;;;;;;2.30;2.00;;;;;;;21.67;72.21;100658.39;;;;-50
2021/07/18 15:36:26;;;;;;;3.43;1.74;;;;;;;21.68;72.22;100660.58;;;;-52
2021/07/18 15:39:26;;;;;;;4.72;2.00;;;;;;;21.69;72.19;100657.98;;;;-54
2021/07/18 15:42:28;;;;;;;3.46;2.10;;;;;;;21.70;72.26;100648.91;;;;-53
2021/07/18 15:45:26;;;;;;;6.06;1.99;;;;;;;21.71;72.11;100653.26;;;;-54
2021/07/18 15:48:26;;;;;;;2.83;1.87;;;;;;;21.72;72.26;100653.07;;;;-53
2021/07/18 15:51:26;;;;;;;3.03;1.90;;;;;;;21.73;72.21;100654.13;;;;-61
2021/07/18 15:54:26;;;;;;;5.56;1.91;;;;;;;21.74;72.17;100653.98;;;;-61
2021/07/18 15:57:26;;;;;;;3.95;1.84;;;;;;;21.74;72.18;100652.02;;;;-63
2021/07/18 16:00:26;;;;;;;4.03;2.02;;;;;;;21.75;72.22;100649.89;;;;-60
2021/07/18 16:03:26;;;;;;;4.05;1.90;;;;;;;21.76;72.20;100645.57;;;;-61
2021/07/18 16:06:26;;;;;;;4.93;1.94;;;;;;;21.76;72.13;100644.18;;;;-60
2021/07/18 16:09:26;;;;;;;3.90;1.95;;;;;;;21.74;72.02;100640.67;;;;-59
2021/07/18 16:12:26;;;;;;;3.13;1.86;;;;;;;21.73;72.05;100641.91;;;;-59
2021/07/18 16:15:26;;;;;;;2.25;1.76;;;;;;;21.73;71.97;100639.12;;;;-60
2021/07/18 16:18:26;;;;;;;2.53;1.69;;;;;;;21.73;71.97;100642.00;;;;-60
2021/07/18 16:21:26;;;;;;;3.23;1.80;;;;;;;21.71;71.90;100638.25;;;;-61
2021/07/18 16:24:26;;;;;;;5.94;1.98;;;;;;;21.70;72.01;100635.86;;;;-62
2021/07/18 16:27:26;;;;;;;4.09;1.81;;;;;;;21.69;71.90;100633.51;;;;-66
2021/07/18 16:30:27;;;;;;;3.33;1.71;;;;;;;21.70;72.04;100636.84;;;;-55
2021/07/18 16:33:26;;;;;;;3.78;1.77;;;;;;;21.72;71.97;100638.64;;;;-56
2021/07/18 16:36:26;;;;;;;2.45;1.82;;;;;;;21.73;72.03;100634.17;;;;-57
2021/07/18 16:39:26;;;;;;;4.07;1.81;;;;;;;21.74;72.07;100634.56;;;;-52
2021/07/18 16:42:26;;;;;;;3.06;1.90;;;;;;;21.74;72.06;100632.11;;;;-54